Time;durP1;ratioP1;P1;durP2;ratioP2;P2;SDS_P1;SDS_P2;PMS_P1;PMS_P2;Temp;Humidity;BMP_temperature;BMP_pressure;BME280_temperature;BME280_humidity;BME280_pressure;Samples;Min_cycle;Max_cycle;Signal;HPM_P1;HPM_P2
2024/03/10 00:00:43;;;;;;;21.43;15.90;;;7.40;80.90;;;6.59;81.94;96226.06;5060941;28;20453;-73
2024/03/10 00:03:12;;;;;;;20.47;14.97;;;7.40;81.10;;;6.59;82.34;96220.69;5058705;28;20561;-73
2024/03/10 00:05:39;;;;;;;21.50;16.87;;;7.30;81.30;;;6.56;82.53;96224.69;5056183;28;20454;-75
2024/03/10 00:08:07;;;;;;;21.80;15.90;;;7.30;81.50;;;6.43;82.81;96219.56;5063248;28;20531;-72
2024/03/10 00:10:37;;;;;;;23.43;16.63;;;7.20;81.80;;;6.48;82.88;96216.97;5056880;28;20742;-74
2024/03/10 00:13:05;;;;;;;22.20;17.60;;;7.20;82.00;;;6.44;83.13;96205.88;5059472;28;20508;-73
2024/03/10 00:15:32;;;;;;;22.67;17.80;;;7.20;82.00;;;6.05;83.23;96162.63;5059295;28;20462;-72
2024/03/10 00:18:01;;;;;;;20.90;17.20;;;7.20;82.10;;;6.37;83.90;96210.56;5042849;28;20484;-73
2024/03/10 00:20:30;;;;;;;19.83;15.53;;;7.20;82.20;;;6.38;83.47;96214.88;5061435;28;20448;-73
2024/03/10 00:22:57;;;;;;;23.50;17.33;;;7.10;82.40;;;6.29;84.05;96210.91;5058837;28;20460;-75
2024/03/10 00:25:27;;;;;;;18.80;15.53;;;7.00;82.50;;;6.30;83.88;96199.94;5056461;28;20465;-73
2024/03/10 00:27:54;;;;;;;23.23;16.00;;;7.00;82.80;;;6.34;84.11;96216.41;5056211;28;20460;-73
2024/03/10 00:30:23;;;;;;;20.60;16.37;;;7.00;82.80;;;5.88;84.08;96149.88;5056636;28;20961;-73
2024/03/10 00:32:50;;;;;;;25.07;18.20;;;7.00;82.90;;;6.20;84.17;96211.25;5063956;28;20758;-74
2024/03/10 00:35:25;;;;;;;20.80;16.73;;;7.00;83.00;;;6.19;84.82;96200.75;5055875;28;20473;-74
2024/03/10 00:37:56;;;;;;;22.07;17.67;;;7.00;83.10;;;6.24;84.58;96211.63;5049448;28;20461;-73
2024/03/10 00:40:24;;;;;;;21.83;18.17;;;7.00;83.10;;;6.29;84.28;96208.22;5062041;28;20461;-73
2024/03/10 00:42:59;;;;;;;25.90;18.30;;;7.00;83.10;;;6.24;84.98;96209.75;5062565;28;20567;-74
2024/03/10 00:45:27;;;;;;;20.10;17.03;;;7.00;83.30;;;6.34;84.36;96194.94;5062497;28;20460;-73
2024/03/10 00:47:55;;;;;;;23.10;17.40;;;7.00;83.30;;;6.19;84.03;96187.34;5079329;28;20459;-74
2024/03/10 00:50:23;;;;;;;22.33;17.27;;;7.00;83.30;;;6.04;84.34;96167.16;5064348;28;20465;-73
2024/03/10 00:52:51;;;;;;;25.87;17.50;;;7.00;83.30;;;6.22;84.75;96198.44;5058049;28;20444;-74
2024/03/10 00:55:19;;;;;;;21.70;17.10;;;7.00;83.40;;;6.22;84.72;96195.75;5062525;28;20445;-73
2024/03/10 00:57:47;;;;;;;22.10;18.00;;;7.00;83.50;;;6.19;84.53;96204.25;5065127;28;20456;-74
2024/03/10 01:00:15;;;;;;;22.73;17.60;;;7.00;83.40;;;6.24;84.63;96200.88;5059912;28;20455;-72
2024/03/10 01:02:46;;;;;;;21.53;16.87;;;7.00;83.40;;;6.22;84.84;96198.44;5060580;28;20516;-75
2024/03/10 01:05:13;;;;;;;22.07;17.60;;;7.00;83.50;;;6.17;85.07;96194.81;5045352;28;21086;-74
2024/03/10 01:07:41;;;;;;;21.63;17.20;;;7.00;83.60;;;6.17;85.17;96192.94;5062019;28;21231;-76
2024/03/10 01:10:11;;;;;;;23.07;17.33;;;6.90;83.60;;;6.15;85.11;96197.75;5061621;28;20450;-74
2024/03/10 01:12:40;;;;;;;23.40;19.30;;;6.90;83.60;;;5.64;84.74;96120.34;5056435;28;20544;-77
2024/03/10 01:15:10;;;;;;;23.07;17.43;;;6.90;83.60;;;6.14;85.26;96185.38;5056995;28;20525;-76
2024/03/10 01:17:37;;;;;;;24.70;19.03;;;6.90;83.50;;;6.13;84.77;96188.28;5058666;28;20542;-76
2024/03/10 01:20:08;;;;;;;25.83;17.93;;;6.90;83.60;;;6.04;84.71;96174.41;5056417;28;20494;-73
2024/03/10 01:22:35;;;;;;;20.83;16.40;;;6.90;83.50;;;6.11;84.99;96187.69;5057956;28;20510;-74
2024/03/10 01:25:04;;;;;;;23.33;16.97;;;6.90;83.60;;;6.15;84.57;96176.28;5062865;28;20468;-74
2024/03/10 01:27:31;;;;;;;23.40;17.93;;;6.90;83.60;;;6.12;85.02;96181.28;5062316;28;20937;-74
2024/03/10 01:30:00;;;;;;;23.80;17.70;;;6.80;83.70;;;6.12;84.85;96171.34;5053569;28;20458;-74
2024/03/10 01:32:27;;;;;;;21.70;16.87;;;6.80;83.80;;;5.99;85.38;96174.22;5068165;28;20459;-74
2024/03/10 01:34:54;;;;;;;24.53;18.60;;;6.80;83.80;;;6.00;84.88;96162.50;5059746;28;20480;-74
2024/03/10 01:37:22;;;;;;;22.77;17.80;;;6.80;83.70;;;5.98;85.20;96159.19;5060686;28;20452;-75
2024/03/10 01:39:50;;;;;;;20.73;16.57;;;6.80;83.60;;;5.91;84.80;96149.41;5054106;28;20544;-74
2024/03/10 01:42:17;;;;;;;20.23;16.63;;;6.80;83.70;;;5.94;84.84;96148.94;5075410;28;20453;-73
2024/03/10 01:44:45;;;;;;;21.87;18.10;;;6.80;83.80;;;5.92;85.07;96151.03;5064459;28;20459;-74
2024/03/10 01:47:14;;;;;;;22.70;17.63;;;6.70;83.70;;;5.92;85.47;96152.91;5059500;28;20453;-74
2024/03/10 01:49:41;;;;;;;23.03;16.93;;;6.70;83.80;;;5.92;84.79;96140.31;5057647;28;20561;-74
2024/03/10 01:52:10;;;;;;;25.10;18.03;;;6.70;83.80;;;5.87;85.63;96140.22;5061371;28;21098;-75
2024/03/10 01:54:37;;;;;;;21.70;16.53;;;6.60;84.00;;;5.74;85.44;96130.50;5060625;28;21005;-75
2024/03/10 01:57:06;;;;;;;21.87;18.00;;;6.60;84.10;;;5.80;85.46;96145.69;5062023;28;20800;-74
2024/03/10 01:59:34;;;;;;;24.23;16.93;;;6.50;84.30;;;5.76;85.59;96141.00;5066762;28;20447;-76
2024/03/10 02:02:01;;;;;;;23.57;17.80;;;6.40;84.30;;;5.77;85.50;96134.59;5053646;28;20982;-75
2024/03/10 02:04:30;;;;;;;24.97;17.57;;;6.50;84.30;;;5.84;85.70;96143.34;5058315;28;20493;-75
2024/03/10 02:06:58;;;;;;;24.23;17.03;;;6.50;84.30;;;5.78;85.25;96133.53;5063308;28;20984;-73
2024/03/10 02:09:26;;;;;;;22.37;16.70;;;6.50;84.20;;;5.84;85.34;96132.63;5063378;28;20449;-75
2024/03/10 02:11:54;;;;;;;24.93;17.37;;;6.50;84.20;;;5.77;84.86;96138.09;5078384;28;20582;-73
2024/03/10 02:14:22;;;;;;;23.40;18.00;;;6.50;84.20;;;5.22;85.75;96062.28;5064333;28;20469;-74
2024/03/10 02:16:49;;;;;;;21.77;16.20;;;6.40;84.40;;;5.65;85.65;96132.69;5068366;28;20932;-74
2024/03/10 02:19:18;;;;;;;21.53;16.40;;;6.40;84.20;;;5.65;86.11;96135.38;5061344;28;20461;-73
2024/03/10 02:21:47;;;;;;;22.20;16.87;;;6.40;84.20;;;5.65;85.94;96140.75;5064016;28;20966;-74
2024/03/10 02:24:22;;;;;;;22.93;17.50;;;6.40;84.30;;;5.63;85.81;96140.16;5059507;28;20440;-74
2024/03/10 02:26:51;;;;;;;23.63;17.77;;;6.40;84.40;;;5.61;86.05;96134.22;5060047;28;20966;-75
2024/03/10 02:29:21;;;;;;;23.30;16.47;;;6.40;84.20;;;5.57;86.17;96122.34;5065912;28;23074;-74
2024/03/10 02:48:25;;;;;;;26.30;18.73;;;6.30;84.30;;;5.45;86.37;96108.88;5057721;28;20448;-76
2024/03/10 02:50:52;;;;;;;25.00;18.17;;;6.30;84.30;;;5.34;86.17;96097.09;5060325;28;20860;-73
2024/03/10 02:53:20;;;;;;;22.33;18.17;;;6.20;84.20;;;5.28;86.00;96076.63;5060762;28;20525;-72
2024/03/10 02:55:50;;;;;;;24.00;18.13;;;6.30;84.30;;;5.35;86.30;96098.75;5064234;28;20450;-72
2024/03/10 02:58:18;;;;;;;27.70;20.13;;;6.20;84.20;;;5.43;85.86;96100.28;5062928;28;21027;-76
2024/03/10 03:00:47;;;;;;;23.80;20.37;;;6.20;84.10;;;5.38;86.29;96092.94;5065387;28;20462;-75
2024/03/10 03:03:15;;;;;;;24.37;20.53;;;6.30;84.10;;;5.41;85.83;96088.19;5062411;28;20477;-73
2024/03/10 03:05:45;;;;;;;25.13;19.40;;;6.30;84.10;;;5.44;85.70;96090.38;5059110;28;20473;-73
2024/03/10 03:08:14;;;;;;;26.67;20.00;;;6.30;84.10;;;5.41;85.62;96085.50;5062682;28;20968;-74
2024/03/10 03:10:41;;;;;;;26.40;20.13;;;6.30;84.00;;;5.41;86.15;96090.84;5064241;28;20456;-75
2024/03/10 03:13:09;;;;;;;27.13;20.20;;;6.20;84.00;;;5.37;85.67;96087.81;5056297;28;20827;-73
2024/03/10 03:15:38;;;;;;;27.37;19.13;;;6.20;84.00;;;5.42;86.27;96081.78;5060571;28;20469;-75
2024/03/10 03:18:07;;;;;;;28.63;19.37;;;6.20;84.10;;;5.48;85.10;96091.56;5059027;28;20458;-74
2024/03/10 03:20:34;;;;;;;27.10;20.03;;;6.20;84.00;;;5.41;85.59;96083.63;5063165;28;20433;-74
2024/03/10 03:23:04;;;;;;;23.93;19.23;;;6.20;84.00;;;5.44;85.31;96093.06;5060147;28;20481;-73
2024/03/10 03:25:32;;;;;;;26.20;20.03;;;6.20;84.10;;;5.43;85.92;96088.75;5063813;28;20457;-74
2024/03/10 03:27:59;;;;;;;27.60;21.43;;;6.10;84.20;;;5.36;85.62;96089.66;5059302;28;20504;-74
2024/03/10 03:30:26;;;;;;;25.80;19.57;;;6.10;84.20;;;5.35;85.62;96092.59;5062865;28;20461;-76
2024/03/10 03:32:55;;;;;;;27.20;21.13;;;6.10;84.30;;;5.30;86.31;96098.63;5062559;28;20498;-73
2024/03/10 03:35:23;;;;;;;29.83;21.13;;;6.10;84.40;;;5.26;86.50;96084.06;5062563;28;20484;-73
2024/03/10 03:37:51;;;;;;;26.77;20.40;;;6.10;84.40;;;5.25;86.13;96087.78;5064661;28;20459;-74
2024/03/10 03:40:19;;;;;;;31.60;21.37;;;6.10;84.30;;;5.23;86.34;96085.31;5065775;28;20449;-74
2024/03/10 03:42:46;;;;;;;31.63;20.60;;;6.10;84.50;;;5.21;86.30;96081.25;5062615;28;20508;-74
2024/03/10 03:45:14;;;;;;;28.40;20.77;;;6.00;84.50;;;5.23;86.52;96082.66;5060641;28;20454;-74
2024/03/10 03:47:41;;;;;;;28.83;20.93;;;6.00;84.50;;;5.18;86.57;96071.81;5065023;28;20442;-74
2024/03/10 03:50:10;;;;;;;27.80;19.77;;;6.00;84.60;;;5.08;87.45;96059.00;5058445;28;20452;-74
2024/03/10 03:52:38;;;;;;;33.10;22.10;;;6.00;84.60;;;5.06;87.06;96069.09;5072807;28;20462;-74
2024/03/10 03:55:07;;;;;;;30.33;21.67;;;6.00;84.70;;;5.10;86.52;96067.59;5062816;28;20508;-75
2024/03/10 03:57:34;;;;;;;31.80;22.13;;;5.90;84.50;;;5.13;86.97;96071.66;5058390;28;20526;-74
2024/03/10 04:00:05;;;;;;;29.27;21.47;;;6.00;84.60;;;5.08;86.55;96055.50;5061726;28;20461;-72
2024/03/10 04:02:32;;;;;;;29.00;22.70;;;6.00;84.50;;;5.07;86.54;96060.00;5061360;28;20487;-73
2024/03/10 04:04:59;;;;;;;29.30;21.23;;;5.90;84.40;;;4.98;86.89;96050.69;5057802;28;21005;-74
2024/03/10 04:07:28;;;;;;;28.70;20.60;;;5.90;84.50;;;5.04;86.88;96057.00;5057522;28;20943;-75
2024/03/10 04:09:55;;;;;;;31.00;23.83;;;5.90;84.70;;;5.00;87.33;96048.59;5060702;28;20449;-74
2024/03/10 04:12:23;;;;;;;28.13;21.53;;;5.90;84.80;;;4.95;86.85;96051.94;5056720;28;20456;-74
2024/03/10 04:14:50;;;;;;;27.50;21.40;;;5.80;84.70;;;4.91;87.27;96049.94;5057968;28;20480;-74
2024/03/10 04:17:18;;;;;;;28.00;22.07;;;5.80;84.80;;;4.98;87.73;96050.69;5061826;28;21293;-74
2024/03/10 04:19:45;;;;;;;29.57;21.57;;;5.80;84.90;;;4.96;87.23;96047.44;5062231;28;20448;-74
2024/03/10 04:22:12;;;;;;;28.83;21.50;;;5.80;84.90;;;4.97;87.40;96041.84;5060548;28;20468;-75
2024/03/10 04:24:41;;;;;;;31.27;22.93;;;5.80;85.00;;;4.88;87.77;96050.41;5058830;28;20449;-75
2024/03/10 04:27:08;;;;;;;35.40;23.60;;;5.70;85.00;;;4.90;87.76;96042.97;5080347;28;21096;-74
2024/03/10 04:29:36;;;;;;;29.80;24.20;;;5.70;85.10;;;4.80;87.77;96039.00;5063523;28;20445;-75
2024/03/10 04:32:07;;;;;;;31.57;23.27;;;5.70;85.10;;;4.68;88.21;96019.41;5055647;28;21108;-73
2024/03/10 04:34:36;;;;;;;34.03;24.27;;;5.70;85.20;;;4.72;88.57;96033.16;5053889;28;20537;-75
2024/03/10 04:37:05;;;;;;;32.67;22.83;;;5.70;85.30;;;4.77;88.61;96039.44;5062890;28;20476;-73
2024/03/10 04:39:32;;;;;;;30.80;22.80;;;5.60;85.30;;;4.74;87.89;96041.75;5057753;28;20540;-73
2024/03/10 04:42:00;;;;;;;31.17;21.70;;;5.60;85.50;;;4.72;88.95;96041.97;5060953;28;20875;-73
2024/03/10 04:44:28;;;;;;;28.47;22.50;;;5.60;85.80;;;4.71;87.99;96040.34;5059156;28;20937;-74
2024/03/10 04:46:56;;;;;;;28.50;22.60;;;5.50;85.80;;;4.69;88.70;96037.09;5076991;28;20556;-73
2024/03/10 04:49:24;;;;;;;29.70;21.87;;;5.50;86.00;;;4.57;88.72;96022.84;5063831;28;20461;-76
2024/03/10 04:51:51;;;;;;;30.20;21.53;;;5.50;86.00;;;4.65;88.53;96033.25;5058034;28;20453;-75
2024/03/10 04:54:19;;;;;;;31.97;22.33;;;5.50;86.00;;;4.67;88.38;96028.47;5058482;28;20460;-74
2024/03/10 04:56:47;;;;;;;32.80;23.13;;;5.50;86.10;;;4.63;89.05;96024.63;5063695;28;20891;-75
2024/03/10 04:59:15;;;;;;;30.13;21.40;;;5.50;86.10;;;4.62;88.80;96004.25;5063222;28;20475;-75
2024/03/10 05:01:42;;;;;;;32.80;22.70;;;5.50;86.10;;;4.63;89.14;96000.56;5064254;28;20453;-74
2024/03/10 05:04:10;;;;;;;33.13;24.93;;;5.50;86.30;;;4.49;89.89;95990.03;5040472;28;20461;-74
2024/03/10 05:06:38;;;;;;;29.83;22.20;;;5.40;86.20;;;4.47;89.35;95976.03;5083765;28;20460;-74
2024/03/10 05:09:05;;;;;;;30.13;21.77;;;5.40;86.20;;;4.58;89.53;95987.03;5058293;28;20550;-74
2024/03/10 05:11:32;;;;;;;31.07;22.83;;;5.40;86.40;;;4.49;89.28;95976.66;5061476;28;20452;-75
2024/03/10 05:14:00;;;;;;;29.90;23.77;;;5.40;86.60;;;4.05;90.11;95901.16;5066869;28;20462;-75
2024/03/10 05:16:29;;;;;;;31.00;24.47;;;5.40;86.80;;;4.25;90.49;95938.31;5068265;28;20458;-75
2024/03/10 05:18:58;;;;;;;32.43;22.80;;;5.40;86.80;;;4.43;89.74;95961.50;5060250;28;20820;-72
2024/03/10 05:21:26;;;;;;;31.70;23.17;;;5.30;86.80;;;4.44;89.72;95962.34;5082532;28;20567;-74
2024/03/10 05:23:53;;;;;;;30.60;22.63;;;5.30;87.00;;;4.43;90.11;95963.38;5063910;28;20463;-75
2024/03/10 05:26:21;;;;;;;29.77;22.27;;;5.30;87.00;;;4.39;90.17;95960.34;5067623;28;20457;-75
2024/03/10 05:28:48;;;;;;;32.57;22.17;;;5.30;87.00;;;4.51;90.21;95966.56;5064450;28;20470;-74
2024/03/10 05:31:30;;;;;;;29.90;22.57;;;5.40;87.60;;;4.46;90.09;95969.06;5060227;28;20464;-73
2024/03/10 05:33:59;;;;;;;26.33;20.77;;;5.40;86.90;;;4.49;90.30;95974.00;5061677;28;20461;-73
2024/03/10 05:36:26;;;;;;;31.00;21.47;;;5.40;87.00;;;4.49;90.50;95979.34;5067335;28;20499;-73
2024/03/10 05:38:54;;;;;;;33.20;22.10;;;5.30;87.10;;;4.48;89.88;95977.72;5065161;28;20933;-74
2024/03/10 05:41:21;;;;;;;30.10;23.93;;;5.30;87.10;;;4.38;90.60;95988.13;5067884;28;20467;-75
2024/03/10 05:43:49;;;;;;;34.40;25.27;;;5.30;87.20;;;4.53;90.73;95980.50;5059871;28;20481;-74
2024/03/10 05:46:16;;;;;;;35.60;24.50;;;5.40;87.70;;;4.55;89.72;95988.31;5066251;28;20972;-73
2024/03/10 05:48:45;;;;;;;27.83;21.63;;;5.40;86.90;;;4.61;89.88;96003.44;5058256;28;20496;-74
2024/03/10 05:51:13;;;;;;;31.47;22.73;;;5.50;87.10;;;4.52;89.53;95984.22;5066083;28;20484;-75
2024/03/10 05:53:41;;;;;;;33.13;22.00;;;5.50;87.10;;;4.54;89.54;95992.84;5062723;28;20492;-75
2024/03/10 05:56:10;;;;;;;28.60;22.73;;;5.40;87.00;;;4.53;89.54;95993.06;5060264;28;20473;-74
2024/03/10 05:58:38;;;;;;;31.47;24.13;;;5.40;87.00;;;4.53;90.08;95985.84;5064604;28;20467;-73
2024/03/10 06:01:07;;;;;;;28.63;21.27;;;5.40;87.00;;;4.56;89.77;95986.44;5065506;28;20544;-75
2024/03/10 06:03:35;;;;;;;31.57;23.30;;;5.40;86.70;;;4.37;89.97;95981.94;5057628;28;20454;-74
2024/03/10 06:06:04;;;;;;;29.20;23.87;;;5.30;86.40;;;4.34;89.42;95970.91;5057474;28;20452;-72
2024/03/10 06:08:31;;;;;;;29.53;23.27;;;5.30;86.60;;;4.29;90.07;95976.91;5061328;28;20455;-72
2024/03/10 06:10:59;;;;;;;30.80;22.93;;;5.30;86.40;;;4.44;89.41;95976.50;5063732;28;20501;-75
2024/03/10 06:13:26;;;;;;;27.03;20.03;;;5.30;86.40;;;4.39;89.27;95971.03;5061566;28;20460;-74
2024/03/10 06:15:54;;;;;;;28.53;20.97;;;5.30;86.20;;;4.57;89.74;95975.53;5061749;28;20481;-74
2024/03/10 06:18:24;;;;;;;31.53;22.40;;;5.40;86.50;;;4.58;89.15;95976.31;5066784;28;20863;-73
2024/03/10 06:26:23;;;;;;;29.70;22.27;;;5.60;85.30;;;4.71;87.51;95986.03;5061315;28;20486;-73
2024/03/10 06:28:51;;;;;;;32.93;22.57;;;5.60;85.30;;;4.77;87.71;95985.91;5064312;28;22013;-76
2024/03/10 06:31:19;;;;;;;28.03;21.60;;;5.70;85.40;;;4.81;87.24;95992.47;5064977;28;20463;-75
2024/03/10 06:33:49;;;;;;;27.97;20.27;;;5.70;85.40;;;4.90;86.92;95984.94;5060928;28;20858;-75
2024/03/10 06:36:17;;;;;;;27.27;20.70;;;5.70;85.00;;;4.91;86.21;95980.38;5054824;28;20466;-79
2024/03/10 06:38:46;;;;;;;27.40;20.33;;;5.70;84.60;;;4.97;85.64;95979.47;5053971;28;20453;-81
2024/03/10 06:41:15;;;;;;;27.43;20.73;;;5.80;84.50;;;5.12;85.11;95997.75;5065388;28;20465;-78
2024/03/10 06:43:46;;;;;;;27.27;20.77;;;5.90;84.10;;;5.00;84.67;95983.53;5063253;28;20468;-75
2024/03/10 06:46:13;;;;;;;26.37;20.03;;;5.90;83.50;;;4.93;84.82;95987.13;5065810;28;20535;-76
2024/03/10 06:48:42;;;;;;;26.90;20.40;;;5.90;83.40;;;5.07;84.61;95993.09;5063861;28;20456;-78
2024/03/10 06:51:10;;;;;;;23.40;18.27;;;5.90;83.30;;;5.17;84.03;95997.06;5058301;28;20456;-78
2024/03/10 06:53:38;;;;;;;24.00;18.50;;;5.90;83.10;;;5.30;83.37;96004.91;5056934;28;20450;-76
2024/03/10 06:56:08;;;;;;;25.43;18.63;;;6.00;83.10;;;5.31;82.95;96006.53;5064156;28;20922;-78
2024/03/10 06:58:35;;;;;;;23.67;18.87;;;6.10;82.80;;;5.37;82.36;96008.25;5062291;28;21023;-77
2024/03/10 07:01:05;;;;;;;24.70;19.00;;;6.20;82.60;;;5.17;82.66;95972.97;5068184;28;20456;-77
2024/03/10 07:03:34;;;;;;;21.80;18.20;;;6.20;82.60;;;5.51;82.05;96021.44;5057676;28;20457;-76
2024/03/10 07:06:02;;;;;;;23.70;18.03;;;6.30;82.30;;;5.55;81.98;96022.63;5063637;28;20967;-75
2024/03/10 07:08:30;;;;;;;24.10;18.33;;;6.30;82.00;;;5.56;81.72;96028.78;5059128;28;20456;-77
2024/03/10 07:10:58;;;;;;;23.50;17.43;;;6.40;82.10;;;5.49;82.06;96023.53;5058681;28;20511;-76
2024/03/10 07:13:28;;;;;;;23.30;18.70;;;6.30;81.90;;;5.41;81.66;96010.50;5074560;28;20461;-76
2024/03/10 07:15:56;;;;;;;23.33;17.80;;;6.40;81.90;;;5.69;80.33;96012.47;5059507;28;20473;-76
2024/03/10 07:18:23;;;;;;;20.90;17.30;;;6.50;81.70;;;5.91;79.82;96020.75;5057978;28;20559;-77
2024/03/10 07:20:51;;;;;;;21.83;18.43;;;6.60;81.30;;;5.99;79.24;96016.88;5053903;28;21217;-76
2024/03/10 07:23:21;;;;;;;24.93;17.33;;;6.70;81.40;;;5.87;79.05;96008.88;5060292;28;20450;-75
2024/03/10 07:25:49;;;;;;;21.10;16.77;;;6.70;80.80;;;5.97;79.80;96013.63;5062359;28;20635;-76
2024/03/10 07:28:16;;;;;;;22.03;18.60;;;6.70;80.80;;;5.95;79.00;96016.53;5063029;28;20599;-76
2024/03/10 07:30:45;;;;;;;19.90;16.33;;;6.70;80.40;;;6.11;78.11;96008.84;5049807;28;20460;-75
2024/03/10 07:33:12;;;;;;;20.17;16.10;;;6.80;80.60;;;6.29;77.29;96009.75;5053822;28;20475;-76
2024/03/10 07:35:40;;;;;;;22.23;18.13;;;7.00;80.20;;;6.19;77.26;96008.50;5061982;28;20474;-75
2024/03/10 07:38:08;;;;;;;20.37;17.53;;;7.00;79.60;;;6.22;77.30;95999.97;5081818;28;20487;-75
2024/03/10 07:40:37;;;;;;;19.13;15.47;;;7.00;79.70;;;6.21;77.11;95981.44;5053864;28;20455;-78
2024/03/10 07:43:05;;;;;;;18.93;15.90;;;7.10;79.50;;;6.48;76.20;95992.44;5064851;28;20465;-79
2024/03/10 07:45:34;;;;;;;18.03;14.70;;;7.20;79.10;;;6.62;74.40;95976.84;5053187;28;20467;-71
2024/03/10 07:48:05;;;;;;;18.63;15.70;;;7.40;78.80;;;6.85;74.83;95977.00;5053310;28;20533;-72
2024/03/10 07:50:32;;;;;;;17.77;15.77;;;7.50;78.60;;;6.82;73.70;95983.66;5054511;28;21173;-71
2024/03/10 07:53:00;;;;;;;17.50;14.87;;;7.60;77.70;;;6.76;73.70;95971.19;5052937;28;20458;-71
2024/03/10 07:55:30;;;;;;;18.60;15.90;;;7.60;77.70;;;6.87;73.50;95980.25;5060338;28;20509;-72
2024/03/10 07:57:58;;;;;;;18.43;14.43;;;7.60;77.70;;;6.90;73.37;95977.06;5058652;28;20525;-71
2024/03/10 08:00:26;;;;;;;18.03;14.40;;;7.70;77.70;;;7.06;72.94;95972.78;5063706;28;20463;-71
2024/03/10 08:02:54;;;;;;;18.40;14.70;;;7.80;77.40;;;7.09;72.98;95981.19;5061430;28;20461;-71
2024/03/10 08:05:25;;;;;;;17.07;14.13;;;7.90;77.30;;;7.44;71.84;95971.25;5058459;28;20459;-71
2024/03/10 08:07:52;;;;;;;15.87;13.97;;;8.10;77.30;;;7.51;70.38;95966.50;5059886;28;21046;-71
2024/03/10 08:10:21;;;;;;;17.20;14.73;;;8.20;76.40;;;7.59;70.82;95973.34;5058348;28;20455;-71
2024/03/10 08:12:49;;;;;;;18.43;13.67;;;8.30;76.30;;;7.85;68.88;95968.34;5057347;28;20535;-69
2024/03/10 08:15:19;;;;;;;18.13;14.60;;;8.60;75.80;;;7.78;69.65;95970.38;5054135;28;20479;-69
2024/03/10 08:17:46;;;;;;;16.70;14.20;;;8.50;75.60;;;7.70;69.88;95962.75;5043905;28;20531;-69
2024/03/10 08:20:15;;;;;;;18.10;14.70;;;8.50;75.50;;;7.64;69.84;95965.34;5057536;28;20506;-69
2024/03/10 08:22:45;;;;;;;16.80;14.47;;;8.50;75.40;;;7.97;69.28;95953.97;5056401;28;20461;-77
2024/03/10 08:25:13;;;;;;;14.90;13.27;;;8.60;75.50;;;7.89;68.66;95958.69;5059990;28;20457;-77
2024/03/10 08:27:40;;;;;;;17.63;14.13;;;8.70;74.80;;;7.63;69.65;95963.72;5054504;28;20447;-78
2024/03/10 08:30:09;;;;;;;16.83;14.23;;;8.50;74.90;;;7.70;69.66;95962.75;5059905;28;20854;-77
2024/03/10 08:32:37;;;;;;;15.50;13.17;;;8.50;75.00;;;8.00;68.81;95956.16;5041694;28;20444;-73
2024/03/10 08:35:07;;;;;;;18.47;13.43;;;8.60;75.00;;;8.05;68.60;95964.28;5057836;28;20482;-73
2024/03/10 08:37:36;;;;;;;14.27;12.77;;;8.70;74.50;;;8.02;67.80;95962.09;5052698;28;20448;-74
2024/03/10 08:40:11;;;;;;;14.77;13.20;;;8.80;74.00;;;8.11;67.28;95952.50;5057779;28;20475;-73
2024/03/10 08:42:38;;;;;;;16.67;13.60;;;8.80;74.10;;;8.21;67.44;95958.03;5055994;28;20751;-73
2024/03/10 08:45:10;;;;;;;14.83;12.50;;;8.90;73.80;;;8.40;67.08;95955.00;5060980;28;20459;-72
2024/03/10 08:47:38;;;;;;;13.43;12.00;;;9.00;73.70;;;8.59;66.31;95962.78;5057296;28;21087;-74
2024/03/10 08:50:08;;;;;;;13.03;11.70;;;9.20;73.50;;;8.68;65.37;95955.06;5053871;28;21112;-73
2024/03/10 08:52:36;;;;;;;13.67;11.67;;;9.40;73.00;;;8.54;66.45;95949.25;5052068;28;20457;-74
2024/03/10 08:55:06;;;;;;;14.93;12.03;;;9.30;73.10;;;8.67;65.82;95940.00;5051996;28;21076;-75
2024/03/10 08:57:33;;;;;;;13.87;12.40;;;9.40;73.00;;;8.71;65.11;95936.50;5058070;28;20489;-73
2024/03/10 09:00:02;;;;;;;14.23;12.30;;;9.50;72.60;;;8.88;64.82;95933.72;5050544;28;20802;-72
2024/03/10 09:02:29;;;;;;;14.33;11.33;;;9.60;72.50;;;8.91;64.59;95921.63;5053129;28;20461;-75
2024/03/10 09:04:57;;;;;;;14.93;12.20;;;9.70;72.20;;;8.76;64.81;95924.97;5052294;28;21450;-74
2024/03/10 09:07:25;;;;;;;13.83;12.03;;;9.60;72.00;;;8.79;64.76;95927.97;5062286;28;20471;-76
2024/03/10 09:09:52;;;;;;;12.63;11.33;;;9.60;71.70;;;8.96;64.78;95921.66;5062796;28;20522;-74
2024/03/10 09:12:21;;;;;;;14.43;12.00;;;9.70;71.90;;;9.24;63.53;95908.13;5060376;28;20454;-72
2024/03/10 09:14:51;;;;;;;13.60;12.10;;;9.90;71.60;;;9.23;63.95;95912.72;5061806;28;20450;-72
2024/03/10 09:17:21;;;;;;;12.60;11.30;;;10.00;70.20;;;9.40;62.82;95911.75;5058503;28;21086;-73
2024/03/10 09:19:49;;;;;;;13.50;11.10;;;10.00;70.10;;;9.46;62.69;95916.09;5060191;28;20514;-74
2024/03/10 09:22:16;;;;;;;12.13;10.70;;;10.20;69.70;;;9.37;63.22;95913.06;5053997;28;20453;-74
2024/03/10 09:24:44;;;;;;;12.53;11.23;;;10.10;69.50;;;9.26;62.81;95906.81;5060741;28;20452;-73
2024/03/10 09:27:12;;;;;;;13.90;12.07;;;10.10;69.30;;;9.41;62.82;95897.19;5056209;28;20494;-73
2024/03/10 09:29:41;;;;;;;12.00;10.80;;;10.10;69.30;;;9.50;61.98;95912.63;5060407;28;20521;-73
2024/03/10 09:32:15;;;;;;;12.20;10.77;;;10.30;69.00;;;9.38;62.62;95897.72;5050637;28;20475;-71
2024/03/10 09:34:43;;;;;;;11.40;10.20;;;10.20;68.70;;;9.51;61.75;95894.59;5054229;28;20470;-74
2024/03/10 09:37:10;;;;;;;11.27;9.70;;;10.20;68.50;;;9.95;60.40;95900.75;5061960;28;20485;-74
2024/03/10 09:39:37;;;;;;;13.53;11.10;;;10.50;68.50;;;10.09;59.76;95901.88;5059767;28;20457;-73
2024/03/10 09:42:05;;;;;;;12.50;10.70;;;10.60;68.10;;;10.15;59.89;95900.81;5061227;28;20554;-73
2024/03/10 09:44:33;;;;;;;10.40;9.30;;;10.80;67.60;;;10.39;58.60;95899.53;5052254;28;20458;-74
2024/03/10 09:47:06;;;;;;;11.37;9.17;;;11.00;67.20;;;10.03;59.30;95848.97;5061333;28;20440;-85
2024/03/10 09:49:34;;;;;;;10.00;9.00;;;11.00;67.00;;;10.35;58.52;95899.25;5059002;28;20463;-78
2024/03/10 09:52:02;;;;;;;16.00;11.03;;;11.10;66.40;;;10.14;59.43;95896.47;5052521;28;20453;-78
2024/03/10 09:54:30;;;;;;;13.47;10.07;;;10.90;66.30;;;9.99;59.09;95847.88;5052835;28;20454;-80
2024/03/10 09:56:57;;;;;;;11.37;10.20;;;10.90;66.70;;;10.67;58.18;95892.84;5054629;28;20591;-82
2024/03/10 09:59:35;;;;;;;9.47;8.50;;;11.20;66.40;;;10.59;58.38;95888.00;5059234;28;20459;-79
2024/03/10 10:02:07;;;;;;;10.43;9.30;;;11.30;65.90;;;10.57;57.98;95873.94;5059332;28;20795;-78
2024/03/10 10:04:37;;;;;;;9.70;8.80;;;11.30;65.90;;;11.01;57.62;95868.03;5055434;28;20479;-79
2024/03/10 10:07:11;;;;;;;9.70;8.73;;;11.50;66.00;;;11.10;56.10;95862.06;5059362;28;20540;-76
2024/03/10 10:09:38;;;;;;;10.37;9.27;;;11.70;65.10;;;11.32;55.66;95873.41;5065111;28;20458;-76
2024/03/10 10:12:07;;;;;;;11.70;9.97;;;11.80;64.90;;;11.39;55.29;95870.44;5059839;28;20976;-74
2024/03/10 10:14:35;;;;;;;10.30;9.30;;;12.10;64.20;;;11.43;55.47;95854.44;5062757;28;20652;-75
2024/03/10 10:17:06;;;;;;;9.63;8.63;;;12.00;64.10;;;11.43;54.92;95847.16;5066664;28;21006;-77
2024/03/10 10:19:36;;;;;;;9.73;8.70;;;12.10;63.70;;;11.25;55.62;95858.56;5058873;28;20540;-75
2024/03/10 10:22:05;;;;;;;11.90;9.77;;;12.00;63.80;;;11.09;56.41;95846.94;5061060;28;20444;-75
2024/03/10 10:24:33;;;;;;;10.80;9.70;;;11.90;63.60;;;11.27;55.67;95845.56;5077593;28;20859;-76
2024/03/10 10:27:02;;;;;;;11.50;8.90;;;11.90;63.40;;;11.67;54.59;95829.50;5059850;28;20837;-82
2024/03/10 10:29:32;;;;;;;9.23;8.40;;;12.20;63.30;;;11.82;54.20;95829.44;5062634;28;20451;-81
2024/03/10 10:32:06;;;;;;;9.63;8.27;;;12.40;62.90;;;11.59;54.19;95776.81;5064144;28;20452;-73
2024/03/10 10:34:40;;;;;;;9.23;8.27;;;12.50;62.90;;;11.56;54.17;95839.56;5064426;28;20455;-75
2024/03/10 10:37:10;;;;;;;9.03;8.13;;;12.30;62.20;;;11.52;54.45;95833.88;5065211;28;20511;-72
2024/03/10 10:39:40;;;;;;;9.33;8.40;;;12.20;62.20;;;11.64;54.26;95832.78;5064585;28;20451;-73
2024/03/10 10:42:09;;;;;;;9.20;8.23;;;12.30;62.40;;;11.62;54.28;95819.50;5063879;28;20969;-75
2024/03/10 10:44:40;;;;;;;10.93;8.83;;;12.30;62.40;;;11.75;53.91;95821.63;5059031;28;20443;-79